sensor_id;sensor_type;location;lat;lon;timestamp;pressure;altitude;pressure_sealevel;temperature
43802;BMP280;29429;51.074;13.764;2023-06-01T04:19:31;100296.31;;;13.47
43802;BMP280;29429;51.074;13.764;2023-06-01T04:22:04;100290.50;;;13.56
43802;BMP280;29429;51.074;13.764;2023-06-01T04:24:31;100289.44;;;13.64
43802;BMP280;29429;51.074;13.764;2023-06-01T04:26:59;100292.31;;;13.69
43802;BMP280;29429;51.074;13.764;2023-06-01T04:29:27;100281.78;;;13.74
43802;BMP280;29429;51.074;13.764;2023-06-01T04:31:55;100282.81;;;13.73
43802;BMP280;29429;51.074;13.764;2023-06-01T04:34:23;100280.94;;;13.80
43802;BMP280;29429;51.074;13.764;2023-06-01T04:36:51;100280.50;;;13.89
43802;BMP280;29429;51.074;13.764;2023-06-01T04:39:18;100284.78;;;13.97
43802;BMP280;29429;51.074;13.764;2023-06-01T04:41:46;100288.44;;;14.09
43802;BMP280;29429;51.074;13.764;2023-06-01T04:44:14;100280.97;;;14.18
43802;BMP280;29429;51.074;13.764;2023-06-01T04:46:44;100282.13;;;14.28
43802;BMP280;29429;51.074;13.764;2023-06-01T04:49:11;100293.06;;;14.40
43802;BMP280;29429;51.074;13.764;2023-06-01T04:51:41;100289.88;;;14.49
43802;BMP280;29429;51.074;13.764;2023-06-01T04:54:09;100285.28;;;14.56
43802;BMP280;29429;51.074;13.764;2023-06-01T04:56:36;100285.84;;;14.65
43802;BMP280;29429;51.074;13.764;2023-06-01T04:59:04;100290.13;;;14.73
43802;BMP280;29429;51.074;13.764;2023-06-01T05:01:32;100278.09;;;14.82
43802;BMP280;29429;51.074;13.764;2023-06-01T05:04:00;100269.31;;;14.93
43802;BMP280;29429;51.074;13.764;2023-06-01T05:06:28;100265.28;;;15.02
43802;BMP280;29429;51.074;13.764;2023-06-01T05:08:55;100262.47;;;15.15
43802;BMP280;29429;51.074;13.764;2023-06-01T05:11:23;100262.78;;;15.25
43802;BMP280;29429;51.074;13.764;2023-06-01T05:13:50;100267.66;;;15.35
43802;BMP280;29429;51.074;13.764;2023-06-01T05:16:19;100258.47;;;15.42
43802;BMP280;29429;51.074;13.764;2023-06-01T05:18:48;100268.72;;;15.52
43802;BMP280;29429;51.074;13.764;2023-06-01T05:21:16;100258.31;;;15.62
43802;BMP280;29429;51.074;13.764;2023-06-01T05:23:43;100262.31;;;15.71
43802;BMP280;29429;51.074;13.764;2023-06-01T05:26:12;100262.84;;;15.79
43802;BMP280;29429;51.074;13.764;2023-06-01T05:28:40;100263.81;;;15.85
43802;BMP280;29429;51.074;13.764;2023-06-01T05:31:14;100267.91;;;15.88
43802;BMP280;29429;51.074;13.764;2023-06-01T05:33:45;100266.19;;;15.93
43802;BMP280;29429;51.074;13.764;2023-06-01T05:36:14;100268.91;;;16.05
43802;BMP280;29429;51.074;13.764;2023-06-01T05:38:41;100267.69;;;16.19
43802;BMP280;29429;51.074;13.764;2023-06-01T05:41:09;100264.00;;;16.31
43802;BMP280;29429;51.074;13.764;2023-06-01T05:43:36;100270.47;;;16.42
43802;BMP280;29429;51.074;13.764;2023-06-01T05:46:05;100270.13;;;16.50
43802;BMP280;29429;51.074;13.764;2023-06-01T05:48:34;100263.63;;;16.58
43802;BMP280;29429;51.074;13.764;2023-06-01T05:51:06;100272.56;;;16.70
43802;BMP280;29429;51.074;13.764;2023-06-01T05:53:33;100268.25;;;16.80
43802;BMP280;29429;51.074;13.764;2023-06-01T05:56:00;100259.00;;;16.88
43802;BMP280;29429;51.074;13.764;2023-06-01T05:58:28;100256.88;;;16.90
43802;BMP280;29429;51.074;13.764;2023-06-01T06:00:55;100249.72;;;16.95
43802;BMP280;29429;51.074;13.764;2023-06-01T06:03:23;100250.06;;;17.11
43802;BMP280;29429;51.074;13.764;2023-06-01T06:05:50;100245.53;;;17.23
43802;BMP280;29429;51.074;13.764;2023-06-01T06:08:20;100250.53;;;17.42
43802;BMP280;29429;51.074;13.764;2023-06-01T06:10:47;100250.53;;;17.54
43802;BMP280;29429;51.074;13.764;2023-06-01T06:13:15;100246.75;;;17.67
43802;BMP280;29429;51.074;13.764;2023-06-01T06:15:42;100235.38;;;17.76
43802;BMP280;29429;51.074;13.764;2023-06-01T06:18:09;100238.84;;;17.88
43802;BMP280;29429;51.074;13.764;2023-06-01T06:20:37;100235.75;;;17.96
43802;BMP280;29429;51.074;13.764;2023-06-01T06:23:04;100234.91;;;18.07
43802;BMP280;29429;51.074;13.764;2023-06-01T06:25:31;100230.25;;;18.19
43802;BMP280;29429;51.074;13.764;2023-06-01T06:27:58;100229.28;;;18.25
43802;BMP280;29429;51.074;13.764;2023-06-01T06:30:25;100232.91;;;18.31
43802;BMP280;29429;51.074;13.764;2023-06-01T06:32:52;100236.81;;;18.40
43802;BMP280;29429;51.074;13.764;2023-06-01T06:35:19;100234.91;;;18.52
43802;BMP280;29429;51.074;13.764;2023-06-01T06:37:46;100222.78;;;18.55
43802;BMP280;29429;51.074;13.764;2023-06-01T06:40:14;100228.63;;;18.63
43802;BMP280;29429;51.074;13.764;2023-06-01T06:42:41;100224.91;;;18.69
43802;BMP280;29429;51.074;13.764;2023-06-01T06:45:09;100224.44;;;18.56
43802;BMP280;29429;51.074;13.764;2023-06-01T06:47:38;100227.53;;;18.64
43802;BMP280;29429;51.074;13.764;2023-06-01T06:50:08;100236.16;;;18.78
43802;BMP280;29429;51.074;13.764;2023-06-01T06:52:37;100229.50;;;18.85
43802;BMP280;29429;51.074;13.764;2023-06-01T06:55:04;100230.53;;;19.01
43802;BMP280;29429;51.074;13.764;2023-06-01T06:57:32;100227.75;;;19.13
43802;BMP280;29429;51.074;13.764;2023-06-01T07:00:01;100221.59;;;19.17
43802;BMP280;29429;51.074;13.764;2023-06-01T07:02:30;100228.78;;;19.28
43802;BMP280;29429;51.074;13.764;2023-06-01T07:04:58;100226.16;;;19.33
43802;BMP280;29429;51.074;13.764;2023-06-01T07:07:25;100225.41;;;19.38
43802;BMP280;29429;51.074;13.764;2023-06-01T07:09:53;100206.97;;;19.35
43802;BMP280;29429;51.074;13.764;2023-06-01T07:12:20;100212.38;;;19.35
43802;BMP280;29429;51.074;13.764;2023-06-01T07:14:47;100210.91;;;19.27
43802;BMP280;29429;51.074;13.764;2023-06-01T07:17:16;100210.91;;;19.27
43802;BMP280;29429;51.074;13.764;2023-06-01T07:19:43;100207.78;;;19.35
43802;BMP280;29429;51.074;13.764;2023-06-01T07:22:10;100208.69;;;19.41
43802;BMP280;29429;51.074;13.764;2023-06-01T07:24:37;100208.25;;;19.49
43802;BMP280;29429;51.074;13.764;2023-06-01T07:27:05;100203.28;;;19.63
43802;BMP280;29429;51.074;13.764;2023-06-01T07:29:32;100204.78;;;19.75
43802;BMP280;29429;51.074;13.764;2023-06-01T07:32:01;100208.41;;;19.86
43802;BMP280;29429;51.074;13.764;2023-06-01T07:34:29;100199.22;;;19.87
43802;BMP280;29429;51.074;13.764;2023-06-01T07:36:56;100199.84;;;19.94
43802;BMP280;29429;51.074;13.764;2023-06-01T07:39:43;100192.53;;;19.94
43802;BMP280;29429;51.074;13.764;2023-06-01T07:42:10;100191.25;;;20.02
43802;BMP280;29429;51.074;13.764;2023-06-01T07:44:37;100195.41;;;20.10
43802;BMP280;29429;51.074;13.764;2023-06-01T07:47:05;100200.06;;;20.14
43802;BMP280;29429;51.074;13.764;2023-06-01T07:49:32;100183.03;;;20.19
43802;BMP280;29429;51.074;13.764;2023-06-01T07:52:03;100193.72;;;20.25
43802;BMP280;29429;51.074;13.764;2023-06-01T07:54:33;100193.09;;;20.23
43802;BMP280;29429;51.074;13.764;2023-06-01T07:57:00;100190.38;;;20.23
43802;BMP280;29429;51.074;13.764;2023-06-01T07:59:33;100201.94;;;20.35
43802;BMP280;29429;51.074;13.764;2023-06-01T08:02:01;100195.16;;;20.38
43802;BMP280;29429;51.074;13.764;2023-06-01T08:04:28;100192.53;;;20.48
43802;BMP280;29429;51.074;13.764;2023-06-01T08:07:01;100192.84;;;20.51
43802;BMP280;29429;51.074;13.764;2023-06-01T08:09:35;100192.56;;;20.53
43802;BMP280;29429;51.074;13.764;2023-06-01T08:12:03;100187.91;;;20.43
43802;BMP280;29429;51.074;13.764;2023-06-01T08:14:30;100187.91;;;20.43
43802;BMP280;29429;51.074;13.764;2023-06-01T08:17:00;100184.72;;;20.51
43802;BMP280;29429;51.074;13.764;2023-06-01T08:19:28;100175.50;;;20.52
43802;BMP280;29429;51.074;13.764;2023-06-01T08:22:00;100175.00;;;20.60
43802;BMP280;29429;51.074;13.764;2023-06-01T08:24:27;100173.41;;;20.59
43802;BMP280;29429;51.074;13.764;2023-06-01T08:26:55;100164.50;;;20.69
43802;BMP280;29429;51.074;13.764;2023-06-01T08:29:26;100163.16;;;20.72
43802;BMP280;29429;51.074;13.764;2023-06-01T08:32:09;100157.28;;;20.85
43802;BMP280;29429;51.074;13.764;2023-06-01T08:34:37;100157.66;;;20.98
43802;BMP280;29429;51.074;13.764;2023-06-01T08:37:04;100152.53;;;21.02
43802;BMP280;29429;51.074;13.764;2023-06-01T08:39:32;100151.56;;;21.18
43802;BMP280;29429;51.074;13.764;2023-06-01T08:44:40;100148.88;;;21.28
43802;BMP280;29429;51.074;13.764;2023-06-01T08:47:09;100134.47;;;21.22
43802;BMP280;29429;51.074;13.764;2023-06-01T08:49:40;100144.00;;;21.30
43802;BMP280;29429;51.074;13.764;2023-06-01T08:52:14;100144.00;;;21.30
43802;BMP280;29429;51.074;13.764;2023-06-01T08:54:47;100142.38;;;21.34
43802;BMP280;29429;51.074;13.764;2023-06-01T08:57:16;100134.00;;;21.41
43802;BMP280;29429;51.074;13.764;2023-06-01T08:59:46;100138.09;;;21.48
43802;BMP280;29429;51.074;13.764;2023-06-01T09:02:14;100135.91;;;21.50
43802;BMP280;29429;51.074;13.764;2023-06-01T09:04:42;100131.06;;;21.57
43802;BMP280;29429;51.074;13.764;2023-06-01T09:07:14;100127.84;;;21.70
43802;BMP280;29429;51.074;13.764;2023-06-01T09:09:42;100127.03;;;21.80
43802;BMP280;29429;51.074;13.764;2023-06-01T09:12:29;100125.72;;;21.93
43802;BMP280;29429;51.074;13.764;2023-06-01T09:15:16;100124.38;;;22.00
43802;BMP280;29429;51.074;13.764;2023-06-01T09:17:51;100112.16;;;22.08
43802;BMP280;29429;51.074;13.764;2023-06-01T09:20:27;100120.03;;;22.19
43802;BMP280;29429;51.074;13.764;2023-06-01T09:22:55;100118.13;;;22.25
43802;BMP280;29429;51.074;13.764;2023-06-01T09:25:26;100119.78;;;22.26
43802;BMP280;29429;51.074;13.764;2023-06-01T09:27:56;100115.97;;;22.22
43802;BMP280;29429;51.074;13.764;2023-06-01T09:30:42;100107.00;;;22.26
43802;BMP280;29429;51.074;13.764;2023-06-01T09:33:15;100103.47;;;22.36
43802;BMP280;29429;51.074;13.764;2023-06-01T09:35:48;100102.91;;;22.49
43802;BMP280;29429;51.074;13.764;2023-06-01T09:38:26;100099.63;;;22.57
43802;BMP280;29429;51.074;13.764;2023-06-01T09:41:04;100097.97;;;22.61
43802;BMP280;29429;51.074;13.764;2023-06-01T09:43:37;100094.47;;;22.66
43802;BMP280;29429;51.074;13.764;2023-06-01T09:46:11;100099.59;;;22.82
43802;BMP280;29429;51.074;13.764;2023-06-01T09:49:05;100091.97;;;22.74
43802;BMP280;29429;51.074;13.764;2023-06-01T09:51:35;100102.31;;;22.82
43802;BMP280;29429;51.074;13.764;2023-06-01T09:54:03;100106.06;;;22.96
43802;BMP280;29429;51.074;13.764;2023-06-01T09:56:43;100088.88;;;23.06
43802;BMP280;29429;51.074;13.764;2023-06-01T09:59:11;100090.50;;;23.12
43802;BMP280;29429;51.074;13.764;2023-06-01T10:01:38;100091.81;;;23.25
43802;BMP280;29429;51.074;13.764;2023-06-01T10:04:06;100084.16;;;23.32
43802;BMP280;29429;51.074;13.764;2023-06-01T10:06:39;100086.59;;;23.38
43802;BMP280;29429;51.074;13.764;2023-06-01T10:09:11;100078.16;;;23.40
43802;BMP280;29429;51.074;13.764;2023-06-01T10:11:46;100083.88;;;23.38
43802;BMP280;29429;51.074;13.764;2023-06-01T10:14:20;100081.44;;;23.32
43802;BMP280;29429;51.074;13.764;2023-06-01T10:17:03;100076.00;;;23.32
43802;BMP280;29429;51.074;13.764;2023-06-01T10:19:31;100077.59;;;23.33
43802;BMP280;29429;51.074;13.764;2023-06-01T10:21:58;100090.41;;;23.42
43802;BMP280;29429;51.074;13.764;2023-06-01T10:24:26;100085.19;;;23.46
43802;BMP280;29429;51.074;13.764;2023-06-01T10:26:59;100077.50;;;23.58
43802;BMP280;29429;51.074;13.764;2023-06-01T10:29:44;100078.81;;;23.66
43802;BMP280;29429;51.074;13.764;2023-06-01T10:40:46;100054.09;;;23.91
43802;BMP280;29429;51.074;13.764;2023-06-01T10:46:36;100052.09;;;24.06
43802;BMP280;29429;51.074;13.764;2023-06-01T10:49:15;100051.72;;;23.84
43802;BMP280;29429;51.074;13.764;2023-06-01T10:51:43;100050.63;;;23.80
43802;BMP280;29429;51.074;13.764;2023-06-01T10:54:29;100052.78;;;23.83
43802;BMP280;29429;51.074;13.764;2023-06-01T10:57:26;100047.63;;;23.82
43802;BMP280;29429;51.074;13.764;2023-06-01T11:03:03;100044.09;;;23.81
43802;BMP280;29429;51.074;13.764;2023-06-01T11:05:51;100055.66;;;24.02
43802;BMP280;29429;51.074;13.764;2023-06-01T11:18:56;100022.03;;;24.16
43802;BMP280;29429;51.074;13.764;2023-06-01T11:23:57;100030.28;;;24.06
43802;BMP280;29429;51.074;13.764;2023-06-01T11:26:50;100020.44;;;24.10
43802;BMP280;29429;51.074;13.764;2023-06-01T11:29:22;100024.19;;;24.19
43802;BMP280;29429;51.074;13.764;2023-06-01T11:31:55;100017.63;;;24.20
43802;BMP280;29429;51.074;13.764;2023-06-01T11:34:41;100017.28;;;24.27
43802;BMP280;29429;51.074;13.764;2023-06-01T11:37:19;100018.91;;;24.28
43802;BMP280;29429;51.074;13.764;2023-06-01T11:39:47;100000.16;;;24.21
43802;BMP280;29429;51.074;13.764;2023-06-01T11:42:19;100000.16;;;24.21
43802;BMP280;29429;51.074;13.764;2023-06-01T11:44:59;100003.06;;;24.30
43802;BMP280;29429;51.074;13.764;2023-06-01T11:47:30;100003.28;;;24.34
43802;BMP280;29429;51.074;13.764;2023-06-01T11:49:58;99991.88;;;24.32
43802;BMP280;29429;51.074;13.764;2023-06-01T11:52:26;99987.81;;;24.29
43802;BMP280;29429;51.074;13.764;2023-06-01T11:54:53;99980.91;;;24.37
43802;BMP280;29429;51.074;13.764;2023-06-01T11:57:21;99979.75;;;24.43
43802;BMP280;29429;51.074;13.764;2023-06-01T11:59:50;99973.84;;;24.36
43802;BMP280;29429;51.074;13.764;2023-06-01T12:02:27;99982.47;;;24.43
43802;BMP280;29429;51.074;13.764;2023-06-01T12:05:06;99977.53;;;24.45
43802;BMP280;29429;51.074;13.764;2023-06-01T12:07:49;99996.13;;;24.43
43802;BMP280;29429;51.074;13.764;2023-06-01T12:10:19;99977.47;;;24.50
43802;BMP280;29429;51.074;13.764;2023-06-01T12:12:48;99982.34;;;24.53
43802;BMP280;29429;51.074;13.764;2023-06-01T12:15:17;99969.88;;;24.47
43802;BMP280;29429;51.074;13.764;2023-06-01T12:17:55;99963.84;;;24.50
43802;BMP280;29429;51.074;13.764;2023-06-01T12:20:35;99964.00;;;24.58
43802;BMP280;29429;51.074;13.764;2023-06-01T12:23:16;99963.72;;;24.60
43802;BMP280;29429;51.074;13.764;2023-06-01T12:25:55;99961.16;;;24.68
43802;BMP280;29429;51.074;13.764;2023-06-01T12:28:26;99959.41;;;24.77
43802;BMP280;29429;51.074;13.764;2023-06-01T12:31:09;99962.38;;;24.81
43802;BMP280;29429;51.074;13.764;2023-06-01T12:33:42;99950.28;;;24.87
43802;BMP280;29429;51.074;13.764;2023-06-01T12:36:33;99952.88;;;24.97
43802;BMP280;29429;51.074;13.764;2023-06-01T12:39:03;99950.69;;;24.99
43802;BMP280;29429;51.074;13.764;2023-06-01T12:41:31;99944.63;;;25.02
43802;BMP280;29429;51.074;13.764;2023-06-01T12:44:02;99950.06;;;25.02
43802;BMP280;29429;51.074;13.764;2023-06-01T12:46:30;99958.81;;;25.04
43802;BMP280;29429;51.074;13.764;2023-06-01T12:49:17;99943.22;;;25.05
43802;BMP280;29429;51.074;13.764;2023-06-01T12:51:46;99946.69;;;25.10
43802;BMP280;29429;51.074;13.764;2023-06-01T12:54:13;99946.56;;;25.20
43802;BMP280;29429;51.074;13.764;2023-06-01T12:56:41;99932.00;;;25.25
43802;BMP280;29429;51.074;13.764;2023-06-01T12:59:08;99933.84;;;25.29
43802;BMP280;29429;51.074;13.764;2023-06-01T13:01:36;99944.16;;;25.32
43802;BMP280;29429;51.074;13.764;2023-06-01T13:04:07;99923.06;;;25.19
43802;BMP280;29429;51.074;13.764;2023-06-01T13:06:39;99939.47;;;25.19
43802;BMP280;29429;51.074;13.764;2023-06-01T13:09:10;99932.44;;;25.13
43802;BMP280;29429;51.074;13.764;2023-06-01T13:11:38;99933.94;;;25.06
43802;BMP280;29429;51.074;13.764;2023-06-01T13:14:05;99926.69;;;24.96
43802;BMP280;29429;51.074;13.764;2023-06-01T13:16:32;99930.59;;;24.90
43802;BMP280;29429;51.074;13.764;2023-06-01T13:18:59;99933.25;;;24.95
43802;BMP280;29429;51.074;13.764;2023-06-01T13:21:27;99929.88;;;25.03
43802;BMP280;29429;51.074;13.764;2023-06-01T13:23:54;99919.75;;;25.04
43802;BMP280;29429;51.074;13.764;2023-06-01T13:26:21;99927.06;;;25.08
43802;BMP280;29429;51.074;13.764;2023-06-01T13:28:49;99925.22;;;25.04
43802;BMP280;29429;51.074;13.764;2023-06-01T13:31:16;99920.34;;;25.01
43802;BMP280;29429;51.074;13.764;2023-06-01T13:33:43;99910.25;;;25.01
43802;BMP280;29429;51.074;13.764;2023-06-01T13:36:11;99921.25;;;24.96
43802;BMP280;29429;51.074;13.764;2023-06-01T13:38:38;99914.66;;;24.97
43802;BMP280;29429;51.074;13.764;2023-06-01T13:41:06;99905.81;;;25.05
43802;BMP280;29429;51.074;13.764;2023-06-01T13:43:42;99914.22;;;25.09
43802;BMP280;29429;51.074;13.764;2023-06-01T13:47:05;99913.41;;;24.90
43802;BMP280;29429;51.074;13.764;2023-06-01T13:54:58;99903.66;;;24.83
43802;BMP280;29429;51.074;13.764;2023-06-01T13:57:55;99912.59;;;24.89
43802;BMP280;29429;51.074;13.764;2023-06-01T14:00:46;99908.97;;;24.75
43802;BMP280;29429;51.074;13.764;2023-06-01T14:03:15;99899.53;;;24.67
43802;BMP280;29429;51.074;13.764;2023-06-01T14:05:48;99903.63;;;24.65
43802;BMP280;29429;51.074;13.764;2023-06-01T14:08:22;99903.34;;;24.66
43802;BMP280;29429;51.074;13.764;2023-06-01T14:11:04;99886.28;;;24.56
43802;BMP280;29429;51.074;13.764;2023-06-01T14:14:04;99885.78;;;24.54
43802;BMP280;29429;51.074;13.764;2023-06-01T14:17:25;99892.25;;;24.58
43802;BMP280;29429;51.074;13.764;2023-06-01T14:20:20;99878.25;;;24.46
43802;BMP280;29429;51.074;13.764;2023-06-01T14:23:34;99884.06;;;24.39
43802;BMP280;29429;51.074;13.764;2023-06-01T14:26:58;99885.75;;;24.35
43802;BMP280;29429;51.074;13.764;2023-06-01T14:30:08;99870.25;;;24.31
43802;BMP280;29429;51.074;13.764;2023-06-01T14:32:37;99864.78;;;24.31
43802;BMP280;29429;51.074;13.764;2023-06-01T14:35:12;99863.63;;;24.37
43802;BMP280;29429;51.074;13.764;2023-06-01T14:38:05;99861.88;;;24.46
43802;BMP280;29429;51.074;13.764;2023-06-01T14:41:29;99860.56;;;24.43
43802;BMP280;29429;51.074;13.764;2023-06-01T17:29:06;99773.41;;;24.33
43802;BMP280;29429;51.074;13.764;2023-06-01T17:31:33;99777.19;;;24.37
43802;BMP280;29429;51.074;13.764;2023-06-01T17:34:07;99787.03;;;24.33
43802;BMP280;29429;51.074;13.764;2023-06-01T17:36:41;99779.81;;;24.23
43802;BMP280;29429;51.074;13.764;2023-06-01T17:39:15;99766.94;;;24.05
43802;BMP280;29429;51.074;13.764;2023-06-01T17:47:33;99785.88;;;23.73
43802;BMP280;29429;51.074;13.764;2023-06-01T17:50:00;99781.56;;;23.72
43802;BMP280;29429;51.074;13.764;2023-06-01T17:52:29;99785.50;;;23.61
43802;BMP280;29429;51.074;13.764;2023-06-01T17:54:56;99783.41;;;23.53
43802;BMP280;29429;51.074;13.764;2023-06-01T17:57:23;99791.91;;;23.46
43802;BMP280;29429;51.074;13.764;2023-06-01T17:59:50;99795.00;;;23.35
43802;BMP280;29429;51.074;13.764;2023-06-01T18:02:18;99796.19;;;23.24
43802;BMP280;29429;51.074;13.764;2023-06-01T18:04:46;99789.25;;;23.08
43802;BMP280;29429;51.074;13.764;2023-06-01T18:07:16;99789.91;;;22.94
43802;BMP280;29429;51.074;13.764;2023-06-01T18:09:45;99793.28;;;22.81
43802;BMP280;29429;51.074;13.764;2023-06-01T18:12:15;99795.00;;;22.67
43802;BMP280;29429;51.074;13.764;2023-06-01T18:14:42;99792.63;;;22.56
43802;BMP280;29429;51.074;13.764;2023-06-01T18:17:09;99796.75;;;22.43
43802;BMP280;29429;51.074;13.764;2023-06-01T18:19:40;99795.75;;;22.34
43802;BMP280;29429;51.074;13.764;2023-06-01T18:22:09;99794.72;;;22.20
43802;BMP280;29429;51.074;13.764;2023-06-01T18:24:38;99796.38;;;22.11
43802;BMP280;29429;51.074;13.764;2023-06-01T18:27:08;99794.28;;;21.98
43802;BMP280;29429;51.074;13.764;2023-06-01T18:29:35;99807.63;;;21.94
43802;BMP280;29429;51.074;13.764;2023-06-01T18:32:02;99796.50;;;21.80
43802;BMP280;29429;51.074;13.764;2023-06-01T18:34:30;99805.50;;;21.71
43802;BMP280;29429;51.074;13.764;2023-06-01T18:36:57;99803.34;;;21.58
43802;BMP280;29429;51.074;13.764;2023-06-01T18:39:26;99809.06;;;21.51
43802;BMP280;29429;51.074;13.764;2023-06-01T18:41:58;99813.97;;;21.44
43802;BMP280;29429;51.074;13.764;2023-06-01T18:44:27;99801.25;;;21.30
43802;BMP280;29429;51.074;13.764;2023-06-01T18:46:54;99799.06;;;21.21
43802;BMP280;29429;51.074;13.764;2023-06-01T18:49:25;99795.56;;;21.16
43802;BMP280;29429;51.074;13.764;2023-06-01T18:51:53;99817.81;;;21.18
43802;BMP280;29429;51.074;13.764;2023-06-01T18:54:22;99817.25;;;21.11
43802;BMP280;29429;51.074;13.764;2023-06-01T18:57:24;99789.03;;;20.82
43802;BMP280;29429;51.074;13.764;2023-06-01T19:04:02;99826.44;;;20.75
43802;BMP280;29429;51.074;13.764;2023-06-01T19:06:33;99819.38;;;20.63
43802;BMP280;29429;51.074;13.764;2023-06-01T19:09:02;99820.97;;;20.54
43802;BMP280;29429;51.074;13.764;2023-06-01T19:11:33;99820.41;;;20.47
43802;BMP280;29429;51.074;13.764;2023-06-01T19:14:06;99810.34;;;20.28
43802;BMP280;29429;51.074;13.764;2023-06-01T19:16:45;99839.88;;;20.34
43802;BMP280;29429;51.074;13.764;2023-06-01T19:19:12;99845.84;;;20.31
43802;BMP280;29429;51.074;13.764;2023-06-01T19:21:40;99839.00;;;20.19
43802;BMP280;29429;51.074;13.764;2023-06-01T19:24:08;99840.31;;;20.11
43802;BMP280;29429;51.074;13.764;2023-06-01T19:26:43;99852.75;;;20.07
43802;BMP280;29429;51.074;13.764;2023-06-01T19:29:13;99844.03;;;19.95
43802;BMP280;29429;51.074;13.764;2023-06-01T19:31:45;99846.19;;;19.93
43802;BMP280;29429;51.074;13.764;2023-06-01T19:34:13;99849.94;;;19.87
43802;BMP280;29429;51.074;13.764;2023-06-01T19:36:50;99848.25;;;19.76
43802;BMP280;29429;51.074;13.764;2023-06-01T19:39:50;99849.28;;;19.65
43802;BMP280;29429;51.074;13.764;2023-06-01T19:44:47;99852.44;;;19.52
43802;BMP280;29429;51.074;13.764;2023-06-01T19:47:47;99848.56;;;19.37
43802;BMP280;29429;51.074;13.764;2023-06-01T19:53:02;99873.38;;;19.29
43802;BMP280;29429;51.074;13.764;2023-06-01T19:55:30;99846.94;;;19.10
43802;BMP280;29429;51.074;13.764;2023-06-01T19:57:59;99853.72;;;19.12
43802;BMP280;29429;51.074;13.764;2023-06-01T20:00:28;99868.91;;;19.13
43802;BMP280;29429;51.074;13.764;2023-06-01T20:02:57;99872.38;;;19.09
43802;BMP280;29429;51.074;13.764;2023-06-01T20:05:28;99871.53;;;19.03
43802;BMP280;29429;51.074;13.764;2023-06-01T20:07:59;99879.59;;;18.98
43802;BMP280;29429;51.074;13.764;2023-06-01T20:10:30;99852.91;;;18.80
43802;BMP280;29429;51.074;13.764;2023-06-01T20:13:01;99865.84;;;18.78
43802;BMP280;29429;51.074;13.764;2023-06-01T20:15:39;99869.06;;;18.75
43802;BMP280;29429;51.074;13.764;2023-06-01T20:18:07;99896.97;;;18.80
43802;BMP280;29429;51.074;13.764;2023-06-01T20:20:41;99897.72;;;18.76
43802;BMP280;29429;51.074;13.764;2023-06-01T20:23:16;99900.34;;;18.66
43802;BMP280;29429;51.074;13.764;2023-06-01T20:25:44;99904.09;;;18.65
43802;BMP280;29429;51.074;13.764;2023-06-01T20:28:13;99906.75;;;18.60
43802;BMP280;29429;51.074;13.764;2023-06-01T20:31:03;99905.88;;;18.54
43802;BMP280;29429;51.074;13.764;2023-06-01T20:33:32;99909.56;;;18.48
43802;BMP280;29429;51.074;13.764;2023-06-01T20:36:07;99904.84;;;18.39
43802;BMP280;29429;51.074;13.764;2023-06-01T20:38:40;99912.38;;;18.37
43802;BMP280;29429;51.074;13.764;2023-06-01T20:41:14;99903.41;;;18.31
43802;BMP280;29429;51.074;13.764;2023-06-01T20:43:51;99912.31;;;18.32
43802;BMP280;29429;51.074;13.764;2023-06-01T20:46:19;99895.91;;;18.16
43802;BMP280;29429;51.074;13.764;2023-06-01T20:49:03;99910.50;;;18.15
43802;BMP280;29429;51.074;13.764;2023-06-01T20:51:39;99903.31;;;18.04
43802;BMP280;29429;51.074;13.764;2023-06-01T20:54:22;99910.03;;;18.02
43802;BMP280;29429;51.074;13.764;2023-06-01T20:56:55;99918.88;;;17.97
43802;BMP280;29429;51.074;13.764;2023-06-01T20:59:30;99915.84;;;17.94
43802;BMP280;29429;51.074;13.764;2023-06-01T21:02:07;99903.53;;;17.81
43802;BMP280;29429;51.074;13.764;2023-06-01T21:04:36;99916.28;;;17.86
43802;BMP280;29429;51.074;13.764;2023-06-01T21:07:08;99927.22;;;17.79
43802;BMP280;29429;51.074;13.764;2023-06-01T21:09:36;99920.88;;;17.69
43802;BMP280;29429;51.074;13.764;2023-06-01T21:12:03;99925.38;;;17.63
43802;BMP280;29429;51.074;13.764;2023-06-01T21:14:30;99930.19;;;17.61
43802;BMP280;29429;51.074;13.764;2023-06-01T21:16:58;99935.16;;;17.52
43802;BMP280;29429;51.074;13.764;2023-06-01T21:19:26;99939.97;;;17.50
43802;BMP280;29429;51.074;13.764;2023-06-01T21:21:53;99939.31;;;17.43
43802;BMP280;29429;51.074;13.764;2023-06-01T21:24:21;99950.03;;;17.38
43802;BMP280;29429;51.074;13.764;2023-06-01T21:26:48;99927.63;;;17.21
43802;BMP280;29429;51.074;13.764;2023-06-01T21:29:16;99948.56;;;17.31
43802;BMP280;29429;51.074;13.764;2023-06-01T21:31:43;99944.38;;;17.23
43802;BMP280;29429;51.074;13.764;2023-06-01T21:34:11;99941.81;;;17.17
43802;BMP280;29429;51.074;13.764;2023-06-01T21:36:38;99953.66;;;17.16
43802;BMP280;29429;51.074;13.764;2023-06-01T21:39:05;99966.56;;;17.14
43802;BMP280;29429;51.074;13.764;2023-06-01T21:41:32;99957.09;;;17.11
43802;BMP280;29429;51.074;13.764;2023-06-01T21:44:01;99960.75;;;17.05
43802;BMP280;29429;51.074;13.764;2023-06-01T21:46:28;99959.84;;;16.99
43802;BMP280;29429;51.074;13.764;2023-06-01T21:48:55;99958.47;;;16.97
43802;BMP280;29429;51.074;13.764;2023-06-01T21:51:22;99954.25;;;16.89
43802;BMP280;29429;51.074;13.764;2023-06-01T21:53:49;99960.63;;;16.83
43802;BMP280;29429;51.074;13.764;2023-06-01T21:56:16;99958.88;;;16.77
43802;BMP280;29429;51.074;13.764;2023-06-01T21:58:44;99965.91;;;16.78
43802;BMP280;29429;51.074;13.764;2023-06-01T22:01:11;99965.22;;;16.71
43802;BMP280;29429;51.074;13.764;2023-06-01T22:03:38;99971.69;;;16.70
43802;BMP280;29429;51.074;13.764;2023-06-01T22:06:06;99965.03;;;16.61
43802;BMP280;29429;51.074;13.764;2023-06-01T22:08:33;99985.06;;;16.65
43802;BMP280;29429;51.074;13.764;2023-06-01T22:11:00;99977.41;;;16.51
43802;BMP280;29429;51.074;13.764;2023-06-01T22:13:27;99982.00;;;16.50